VOBZ/VGA METAR and TAF weather

Enter ICAO airport designator
Station Type Date Time Source
VOBZ METAR 2020/09/18 16:00 UTC NOAA

VOBZ 181600Z 23007KT 3000 HZ BKN018 OVC080 26/25 Q1003 NOSIG


Station Type Date Time Source
VOBZ Decoded METAR 2020/09/18 16:00 UTC NOAA

Vijayawada / Gannavaram, India (VOBZ) 16-32N 080-48E 24M
Sep 18, 2020 - 12:00 PM EDT / 2020.09.18 1600 UTC
Wind: from the SW (230 degrees) at 8 MPH (7 KT):0
Visibility: 1 mile(s):0
Sky conditions: overcast
Weather: haze
Temperature: 78 F (26 C)
Dew Point: 77 F (25 C)
Relative Humidity: 94%
Pressure (altimeter): 29.62 in. Hg (1003 hPa)
ob: VOBZ 181600Z 23007KT 3000 HZ BKN018 OVC080 26/25 Q1003 NOSIG
cycle: 16

Station Type Date Time Source
VOBZ TAF 2020/04/22 09:00 UTC NOAA

TAF VOBZ 220800Z 2209/2218 20006KT 6000 SCT020 SCT025

Example: see airport list